Time;durP1;ratioP1;P1;durP2;ratioP2;P2;SDS_P1;SDS_P2;PMS_P1;PMS_P2;Temp;Humidity;BMP_temperature;BMP_pressure;BME280_temperature;BME280_humidity;BME280_pressure;Samples;Min_cycle;Max_cycle;Signal;HPM_P1;HPM_P2
2021/12/05 00:16:53;;;;;;;20.40;3.42;;;;;;;22.81;52.75;97553.00;7302816;19;129475;-48
2021/12/05 00:18:13;;;;;;;21.98;3.33;;;;;;;23.81;50.31;97556.41;7313195;19;130890;-49
2021/12/05 00:20:56;;;;;;;40.88;4.88;;;;;;;23.86;50.76;97558.41;7304516;19;129158;-48
2021/12/05 00:23:31;;;;;;;68.60;8.82;;;;;;;23.86;50.19;97564.47;7307188;19;130133;-48
2021/12/05 00:25:59;;;;;;;20.42;2.60;;;;;;;23.81;50.05;97566.91;7303868;19;130114;-46
2021/12/05 00:28:46;;;;;;;45.58;6.20;;;;;;;23.78;50.39;97574.38;7309929;19;131426;-50
2021/12/05 00:34:07;;;;;;;19.92;3.45;;;;;;;23.61;50.80;97583.66;7310953;19;129080;-51
2021/12/05 00:50:06;;;;;;;15.20;2.28;;;;;;;23.09;52.44;97598.25;7305246;19;130092;-48
2021/12/05 00:52:55;;;;;;;31.65;3.80;;;;;;;23.05;52.75;97602.28;7310200;19;129387;-45
2021/12/05 00:55:41;;;;;;;21.38;3.08;;;;;;;22.94;52.96;97594.19;7306868;19;130502;-46
2021/12/05 00:59:00;;;;;;;76.63;9.50;;;;;;;22.91;53.59;97607.66;7306356;19;130861;-48
2021/12/05 01:03:54;;;;;;;104.63;14.13;;;;;;;22.88;53.14;97610.66;7304917;19;128968;-46
2021/12/05 01:09:14;;;;;;;23.83;3.08;;;;;;;22.81;53.85;97625.56;7308460;19;129069;-47
2021/12/05 01:14:35;;;;;;;40.00;5.00;;;;;;;22.91;53.52;97637.28;7301206;19;129372;-48
2021/12/05 01:17:03;;;;;;;28.63;3.70;;;;;;;23.00;52.86;97648.44;7308520;19;130192;-46
2021/12/05 01:19:31;;;;;;;28.58;3.78;;;;;;;23.02;52.69;97659.53;7307818;19;131300;-47
2021/12/05 01:22:03;;;;;;;26.92;3.63;;;;;;;23.08;52.53;97670.03;7308072;19;129169;-49
2021/12/05 01:27:23;;;;;;;28.98;4.43;;;;;;;23.24;52.00;97653.94;7307877;19;129365;-48
2021/12/05 01:29:55;;;;;;;19.95;2.90;;;;;;;23.44;52.11;97661.09;7308868;19;130939;-47
2021/12/05 01:32:39;;;;;;;39.15;4.80;;;;;;;23.53;51.06;97665.16;7307299;19;129252;-48
2021/12/05 01:35:24;;;;;;;16.95;2.35;;;;;;;23.66;51.33;97666.00;7306902;19;129396;-48
2021/12/05 01:43:58;;;;;;;36.00;5.55;;;;;;;23.82;50.64;97670.03;7301142;19;130342;-51
2021/12/05 01:46:51;;;;;;;26.17;4.13;;;;;;;23.65;50.85;97661.75;7303536;19;129688;-49
2021/12/05 01:57:41;;;;;;;15.90;2.60;;;;;;;23.39;51.78;97677.41;7308536;19;129128;-51
2021/12/05 02:03:09;;;;;;;21.70;3.08;;;;;;;23.30;52.25;97709.25;7308364;19;129443;-52
2021/12/05 02:08:46;;;;;;;29.48;4.05;;;;;;;23.15;52.93;97712.78;7308225;19;129992;-50
2021/12/05 02:32:47;;;;;;;24.63;3.53;;;;;;;22.82;53.96;97748.53;7296223;19;129812;-46
2021/12/05 02:35:28;;;;;;;11.10;1.85;;;;;;;22.85;53.26;97752.56;7301968;19;130787;-46
2021/12/05 02:38:15;;;;;;;25.07;3.57;;;;;;;22.92;52.97;97742.94;7307536;19;129179;-51
2021/12/05 02:43:30;;;;;;;27.73;4.18;;;;;;;23.03;53.17;97750.25;7301920;19;129280;-51
2021/12/05 02:45:59;;;;;;;16.52;2.53;;;;;;;23.08;52.86;97753.09;7303624;19;130842;-50
2021/12/05 02:48:27;;;;;;;26.65;3.72;;;;;;;23.15;52.84;97753.94;7298881;19;129275;-49
2021/12/05 02:50:53;;;;;;;24.10;3.17;;;;;;;23.18;52.05;97737.81;7307696;19;128857;-49
2021/12/05 02:53:22;;;;;;;69.55;8.95;;;;;;;23.40;52.25;97754.28;7302559;19;130901;-47
2021/12/05 02:55:50;;;;;;;11.10;1.95;;;;;;;23.43;51.51;97746.84;7303413;19;130430;-50
2021/12/05 03:01:53;;;;;;;12.55;2.42;;;;;;;23.67;51.13;97754.19;7308450;19;129332;-49
2021/12/05 03:03:56;;;;;;;53.58;7.68;;;;;;;23.73;50.63;97742.91;7293542;19;130856;-49
2021/12/05 03:06:26;;;;;;;24.33;3.22;;;;;;;23.76;51.24;97752.19;7309409;19;130401;-48
2021/12/05 03:09:03;;;;;;;59.28;7.43;;;;;;;23.74;51.08;97749.78;7313139;19;130663;-51
2021/12/05 03:11:29;;;;;;;22.73;3.40;;;;;;;23.75;50.99;97735.63;7313782;19;129214;-51
2021/12/05 03:13:54;;;;;;;44.53;3.90;;;;;;;23.63;51.10;97736.41;7309822;19;130592;-46
2021/12/05 03:16:21;;;;;;;17.08;2.38;;;;;;;23.59;51.37;97735.19;7309789;19;129621;-46
2021/12/05 03:18:46;;;;;;;24.80;3.08;;;;;;;23.52;51.34;97734.38;7313554;19;129620;-44
2021/12/05 03:21:13;;;;;;;19.70;2.67;;;;;;;23.41;51.45;97743.59;7312455;19;135994;-49
2021/12/05 03:23:41;;;;;;;27.30;3.80;;;;;;;23.33;52.07;97735.09;7314156;19;129705;-47
2021/12/05 03:26:09;;;;;;;13.93;2.10;;;;;;;23.31;52.39;97753.66;7306359;19;129636;-47
2021/12/05 03:28:34;;;;;;;25.77;3.30;;;;;;;23.17;52.57;97742.25;7312392;19;129901;-47
2021/12/05 03:31:01;;;;;;;22.73;3.05;;;;;;;23.23;52.90;97751.16;7309811;19;129271;-49
2021/12/05 03:33:26;;;;;;;28.67;3.67;;;;;;;23.19;52.49;97757.78;7310358;19;129696;-48
2021/12/05 03:35:52;;;;;;;12.07;2.10;;;;;;;23.16;52.83;97760.78;7305760;19;130190;-49
2021/12/05 03:38:17;;;;;;;36.77;4.33;;;;;;;23.14;53.08;97762.78;7310671;19;129178;-47
2021/12/05 03:40:42;;;;;;;16.90;2.28;;;;;;;23.12;52.82;97754.34;7312651;19;129252;-49
2021/12/05 03:43:11;;;;;;;28.50;3.28;;;;;;;23.08;53.23;97763.59;7306311;19;158444;-46
2021/12/05 03:45:41;;;;;;;29.05;3.95;;;;;;;23.04;52.88;97764.97;7310293;19;130974;-47
2021/12/05 03:48:07;;;;;;;25.33;3.25;;;;;;;23.04;53.24;97772.81;7309784;19;130283;-48
2021/12/05 03:50:33;;;;;;;33.78;3.85;;;;;;;22.97;52.79;97769.38;7313749;19;130128;-46
2021/12/05 03:52:58;;;;;;;22.38;3.13;;;;;;;23.10;52.82;97772.06;7307843;19;130236;-46
2021/12/05 03:55:23;;;;;;;24.15;3.20;;;;;;;23.23;52.85;97782.63;7308508;19;158355;-48
2021/12/05 03:57:49;;;;;;;18.48;2.65;;;;;;;23.45;52.27;97776.31;7309922;19;129822;-48
2021/12/05 04:00:23;;;;;;;18.58;2.22;;;;;;;23.84;50.52;97776.44;7313775;19;129449;-48
2021/12/05 04:02:51;;;;;;;12.15;2.10;;;;;;;24.30;49.76;97781.81;7310376;19;130150;-46
2021/12/05 04:05:17;;;;;;;26.38;3.58;;;;;;;24.83;48.08;97793.97;7310677;19;130876;-50
2021/12/05 04:07:42;;;;;;;27.42;3.15;;;;;;;25.18;47.29;97781.38;7306458;19;130252;-48
2021/12/05 04:10:08;;;;;;;27.90;3.17;;;;;;;25.61;46.48;97787.72;7310434;19;129722;-48
2021/12/05 04:12:34;;;;;;;40.33;4.57;;;;;;;26.05;45.58;97789.56;7306845;19;129454;-47
2021/12/05 04:15:00;;;;;;;22.47;3.07;;;;;;;26.27;44.54;97769.75;7307382;19;129155;-48
2021/12/05 04:17:26;;;;;;;58.92;7.10;;;;;;;26.64;43.78;97788.09;7305680;19;130590;-46
2021/12/05 04:19:52;;;;;;;25.47;3.90;;;;;;;26.86;43.42;97794.66;7304402;19;129451;-46
2021/12/05 04:22:18;;;;;;;15.15;2.33;;;;;;;26.95;43.63;97797.81;7313250;19;131458;-51
2021/12/05 04:24:44;;;;;;;33.30;4.10;;;;;;;27.02;43.47;97800.38;7304217;19;130468;-46
2021/12/05 04:27:10;;;;;;;49.70;6.28;;;;;;;26.99;42.79;97795.56;7309936;19;129636;-49
2021/12/05 04:29:36;;;;;;;54.20;7.03;;;;;;;26.86;43.43;97786.72;7306072;19;129637;-49
2021/12/05 04:32:02;;;;;;;29.98;3.90;;;;;;;26.83;43.59;97800.34;7301327;19;130180;-48
2021/12/05 04:34:27;;;;;;;36.77;4.27;;;;;;;26.60;44.21;97805.38;7302087;19;130220;-46
2021/12/05 04:36:56;;;;;;;27.17;3.17;;;;;;;26.29;44.74;97794.88;7309632;19;154519;-47
2021/12/05 04:39:23;;;;;;;22.23;2.80;;;;;;;26.14;44.75;97810.19;7311287;19;129419;-48
2021/12/05 04:41:49;;;;;;;33.00;4.13;;;;;;;25.95;45.96;97820.78;7306844;19;129419;-48
2021/12/05 04:44:15;;;;;;;24.47;3.00;;;;;;;25.73;46.39;97828.97;7307239;19;131444;-48
2021/12/05 04:46:41;;;;;;;94.37;12.23;;;;;;;25.49;46.78;97831.50;7304350;19;129769;-48
2021/12/05 04:49:07;;;;;;;25.15;3.67;;;;;;;25.32;47.48;97827.69;7309459;19;130366;-48
2021/12/05 04:51:36;;;;;;;98.65;9.05;;;;;;;25.12;47.97;97825.06;7311294;19;130023;-50
2021/12/05 04:54:02;;;;;;;35.42;3.90;;;;;;;24.94;47.88;97829.34;7298841;19;130570;-47
2021/12/05 04:59:11;;;;;;;27.98;3.53;;;;;;;24.56;49.14;97821.22;7303101;19;129849;-51
2021/12/05 05:04:23;;;;;;;23.80;2.83;;;;;;;24.29;50.05;97830.09;7302534;19;129847;-46
2021/12/05 05:06:49;;;;;;;15.13;2.05;;;;;;;24.16;50.23;97838.75;7309902;19;129256;-48
2021/12/05 05:09:14;;;;;;;34.90;3.78;;;;;;;24.09;50.55;97839.75;7301611;19;131100;-47
2021/12/05 05:11:41;;;;;;;29.50;4.60;;;;;;;23.99;50.80;97840.13;7308639;19;129777;-50
2021/12/05 05:14:07;;;;;;;34.20;4.35;;;;;;;23.88;50.98;97832.75;7304058;19;130026;-49
2021/12/05 05:16:33;;;;;;;39.37;5.50;;;;;;;23.83;51.38;97837.78;7309989;19;129688;-53
2021/12/05 05:19:00;;;;;;;19.90;2.83;;;;;;;23.74;51.61;97852.09;7304544;19;129207;-51
2021/12/05 05:22:18;;;;;;;24.92;4.03;;;;;;;23.64;51.47;97838.53;7310744;19;130467;-50
2021/12/05 05:24:50;;;;;;;22.63;2.90;;;;;;;23.66;51.81;97844.41;7301110;19;130336;-53
2021/12/05 05:30:18;;;;;;;24.45;3.55;;;;;;;23.51;52.07;97854.22;7302026;19;129825;-46
2021/12/05 05:46:18;;;;;;;36.17;3.95;;;;;;;23.30;52.68;97870.03;7302624;19;129483;-49
2021/12/05 05:51:15;;;;;;;19.67;2.72;;;;;;;23.23;53.15;97883.06;7310177;19;129041;-50
2021/12/05 05:53:40;;;;;;;50.72;8.20;;;;;;;23.21;53.22;97881.63;7301791;19;130293;-50
2021/12/05 05:56:12;;;;;;;17.75;2.58;;;;;;;23.25;52.78;97886.28;7304698;19;146337;-51
2021/12/05 05:58:49;;;;;;;140.50;14.82;;;;;;;23.17;53.30;97893.53;7303414;19;129535;-47
2021/12/05 06:04:01;;;;;;;68.82;9.63;;;;;;;23.13;53.20;97898.31;7295704;19;130440;-47
2021/12/05 06:06:27;;;;;;;27.10;3.15;;;;;;;23.15;53.08;97895.50;7309318;19;130207;-48
2021/12/05 06:08:53;;;;;;;79.60;7.25;;;;;;;23.17;52.82;97904.00;7306685;19;129485;-46
2021/12/05 06:11:19;;;;;;;21.38;2.85;;;;;;;23.20;52.77;97909.66;7304508;19;130328;-50
2021/12/05 06:13:46;;;;;;;37.23;5.87;;;;;;;23.27;52.46;97908.94;7307689;19;130156;-48
2021/12/05 06:16:12;;;;;;;;;;;;;;;23.29;52.98;97922.69;7295603;19;130223;-51
2021/12/05 06:18:38;;;;;;;24.92;3.35;;;;;;;23.38;51.96;97930.19;7309815;19;129473;-50
2021/12/05 06:21:04;;;;;;;15.38;2.25;;;;;;;23.52;52.21;97928.47;7308727;19;130477;-50
2021/12/05 06:23:30;;;;;;;29.10;3.90;;;;;;;23.53;51.87;97922.22;7307278;19;129470;-47
2021/12/05 06:25:55;;;;;;;18.20;2.55;;;;;;;23.76;51.49;97941.13;7300204;19;158661;-50
2021/12/05 06:28:28;;;;;;;32.00;3.88;;;;;;;23.80;51.02;97943.16;7306841;19;129174;-47
2021/12/05 06:31:01;;;;;;;17.55;2.15;;;;;;;23.94;50.65;97954.56;7297357;19;130639;-46
2021/12/05 06:39:22;;;;;;;21.67;3.50;;;;;;;24.29;49.85;97964.88;7302314;19;129420;-49
2021/12/05 06:49:45;;;;;;;24.85;3.10;;;;;;;24.52;49.37;97979.47;7299887;19;131267;-50
2021/12/05 06:52:10;;;;;;;20.25;2.70;;;;;;;24.46;49.12;97981.88;7307339;19;129670;-47
2021/12/05 06:54:37;;;;;;;37.50;4.27;;;;;;;24.38;49.84;97973.34;7295831;19;130994;-46
2021/12/05 06:57:04;;;;;;;31.27;3.97;;;;;;;24.27;49.83;97973.94;7305713;19;129669;-48
2021/12/05 06:59:31;;;;;;;27.48;3.03;;;;;;;24.15;49.63;97970.22;7305585;19;130906;-49
2021/12/05 07:01:56;;;;;;;17.85;2.08;;;;;;;24.09;50.25;97979.72;7308778;19;129608;-49
2021/12/05 07:04:47;;;;;;;21.40;2.50;;;;;;;24.13;50.31;97986.19;7306383;19;130393;-47
2021/12/05 07:07:23;;;;;;;24.40;2.85;;;;;;;24.10;50.78;97996.25;7306881;19;130453;-47
2021/12/05 07:09:49;;;;;;;25.85;2.95;;;;;;;24.05;50.51;97994.22;7304929;19;129158;-47
2021/12/05 07:15:05;;;;;;;26.30;3.50;;;;;;;24.08;50.55;97996.47;7300449;19;130835;-47
2021/12/05 07:20:22;;;;;;;28.60;3.05;;;;;;;24.12;50.39;98010.00;7304308;19;156153;-48
2021/12/05 07:23:17;;;;;;;16.83;2.30;;;;;;;24.09;50.21;98021.72;7305949;19;129711;-49
2021/12/05 07:25:54;;;;;;;41.80;4.93;;;;;;;24.14;50.53;98013.25;7302458;19;130001;-48
2021/12/05 07:42:11;;;;;;;23.42;3.17;;;;;;;24.14;50.37;98039.53;7303646;19;130757;-47
2021/12/05 07:44:36;;;;;;;25.52;2.88;;;;;;;24.14;50.46;98050.03;7304393;19;129862;-47
2021/12/05 07:47:02;;;;;;;11.50;1.67;;;;;;;24.12;49.94;98058.09;7296370;19;129486;-47
2021/12/05 07:49:27;;;;;;;32.43;3.50;;;;;;;24.10;50.55;98060.09;7302991;19;130355;-45
2021/12/05 07:51:53;;;;;;;27.73;3.20;;;;;;;24.09;49.85;98063.75;7304435;19;134313;-48
2021/12/05 07:56:50;;;;;;;18.50;2.33;;;;;;;24.10;50.53;98064.53;7315436;19;130127;-47
2021/12/05 07:59:34;;;;;;;24.90;3.05;;;;;;;24.12;50.58;98063.34;7312245;19;131183;-49
2021/12/05 08:18:27;;;;;;;33.90;3.80;;;;;;;23.99;50.75;98083.44;7309704;19;129389;-48
2021/12/05 08:20:53;;;;;;;25.48;2.70;;;;;;;23.95;51.02;98075.09;7309193;19;131133;-47
2021/12/05 08:23:18;;;;;;;23.77;2.77;;;;;;;23.90;50.98;98082.75;7308900;19;130103;-47
2021/12/05 08:25:47;;;;;;;35.25;4.63;;;;;;;23.94;50.43;98085.81;7309376;19;132742;-47
2021/12/05 08:28:54;;;;;;;31.20;3.53;;;;;;;23.90;51.09;98085.38;7310506;19;131181;-47
2021/12/05 08:31:24;;;;;;;57.55;7.65;;;;;;;23.93;50.47;98084.19;7296923;19;130851;-46
2021/12/05 08:37:22;;;;;;;27.13;3.28;;;;;;;23.88;51.14;98084.75;7308396;19;129591;-49
2021/12/05 08:42:05;;;;;;;20.00;2.55;;;;;;;23.87;50.81;98093.63;7311880;19;130332;-47
2021/12/05 08:45:08;;;;;;;52.95;5.90;;;;;;;23.87;51.49;98104.13;7305556;19;129791;-46
2021/12/05 09:23:32;;;;;;;21.35;2.35;;;;;;;23.79;51.20;98141.00;7311497;19;129366;-44
2021/12/05 09:28:39;;;;;;;30.02;3.80;;;;;;;23.80;50.90;98147.09;7310023;19;130518;-48
2021/12/05 09:53:24;;;;;;;31.15;3.97;;;;;;;23.73;47.94;98159.31;7310431;19;129707;-47
2021/12/05 10:12:23;;;;;;;91.33;11.30;;;;;;;23.79;49.20;98156.75;7305432;19;129189;-46
2021/12/05 10:15:14;;;;;;;21.73;2.78;;;;;;;23.76;49.83;98157.16;7305323;19;131402;-46
2021/12/05 10:37:57;;;;;;;18.60;2.58;;;;;;;23.77;50.18;98158.75;7309340;19;129695;-45
2021/12/05 10:40:34;;;;;;;48.42;5.70;;;;;;;23.79;50.29;98146.25;7307257;19;130349;-47
2021/12/05 10:43:00;;;;;;;22.98;3.03;;;;;;;23.70;50.33;98139.50;7308606;19;130593;-47
2021/12/05 10:45:38;;;;;;;38.97;5.10;;;;;;;23.77;50.16;98155.31;7304212;19;129465;-44
2021/12/05 10:48:07;;;;;;;32.03;3.85;;;;;;;23.74;50.72;98159.13;7305178;19;129527;-47
2021/12/05 10:50:42;;;;;;;32.70;3.90;;;;;;;23.75;50.15;98155.50;7307083;19;130174;-44
2021/12/05 10:53:20;;;;;;;22.42;2.78;;;;;;;23.73;50.74;98160.16;7306373;19;130755;-47
2021/12/05 10:55:45;;;;;;;44.60;5.80;;;;;;;23.78;50.77;98155.16;7297276;19;130481;-45
2021/12/05 11:00:40;;;;;;;22.77;3.05;;;;;;;23.81;49.91;98153.94;7303245;19;130170;-51
2021/12/05 11:05:51;;;;;;;21.95;3.05;;;;;;;23.77;50.48;98147.44;7301501;19;129325;-47
2021/12/05 11:08:38;;;;;;;30.73;4.82;;;;;;;23.67;50.26;98139.88;7306402;19;129315;-45
2021/12/05 11:11:12;;;;;;;22.25;2.80;;;;;;;23.71;50.38;98138.53;7305805;19;130311;-46
2021/12/05 11:13:40;;;;;;;40.00;5.45;;;;;;;23.76;50.28;98146.66;7305050;19;129315;-48
2021/12/05 11:16:39;;;;;;;27.17;3.53;;;;;;;23.73;50.77;98146.22;7304607;19;129654;-49
2021/12/05 11:19:26;;;;;;;126.72;16.10;;;;;;;23.74;50.54;98151.25;7299688;19;129534;-51
2021/12/05 11:22:16;;;;;;;21.08;3.00;;;;;;;23.75;50.32;98158.13;7305388;19;140392;-49
2021/12/05 11:24:49;;;;;;;18.60;2.78;;;;;;;23.72;50.42;98161.13;7301539;19;130390;-46
2021/12/05 11:27:36;;;;;;;28.40;3.97;;;;;;;23.65;50.57;98165.50;7306840;19;130917;-47
2021/12/05 11:30:30;;;;;;;39.27;4.90;;;;;;;23.59;51.25;98170.69;7306898;19;129929;-52
2021/12/05 11:33:01;;;;;;;14.75;2.40;;;;;;;23.56;51.55;98168.44;7313977;19;130167;-51
2021/12/05 11:35:42;;;;;;;38.28;4.53;;;;;;;23.52;51.17;98175.88;7305517;19;131347;-48
2021/12/05 11:38:13;;;;;;;19.33;2.78;;;;;;;23.53;51.74;98172.25;7311040;19;129384;-48
2021/12/05 11:41:06;;;;;;;29.45;3.75;;;;;;;23.49;51.68;98165.75;7311767;19;156801;-46
2021/12/05 11:43:35;;;;;;;27.65;3.47;;;;;;;23.51;51.16;98169.00;7310581;19;129206;-46
2021/12/05 11:46:27;;;;;;;26.80;3.25;;;;;;;23.52;51.44;98177.69;7304304;19;129453;-47
2021/12/05 11:49:04;;;;;;;17.75;2.30;;;;;;;23.52;50.92;98177.69;7311441;19;129633;-45
2021/12/05 11:51:32;;;;;;;25.45;3.20;;;;;;;23.50;51.81;98179.69;7306459;19;129218;-49
2021/12/05 11:54:08;;;;;;;75.25;9.38;;;;;;;23.55;51.70;98185.97;7304947;19;129678;-46
2021/12/05 11:56:38;;;;;;;35.35;4.30;;;;;;;23.49;49.50;98181.47;7309476;19;130619;-47
2021/12/05 12:01:50;;;;;;;28.70;3.97;;;;;;;23.46;50.92;98171.38;7302190;19;129142;-50
2021/12/05 12:04:19;;;;;;;40.25;4.97;;;;;;;23.61;50.95;98195.75;7301976;19;129690;-49
2021/12/05 12:06:47;;;;;;;36.78;4.75;;;;;;;23.63;50.13;98193.75;7307233;19;129607;-52
2021/12/05 12:09:12;;;;;;;43.47;4.95;;;;;;;23.58;50.51;98190.88;7312164;19;129500;-47
2021/12/05 12:11:38;;;;;;;28.42;3.38;;;;;;;23.66;50.59;98193.38;7310911;19;129212;-47
2021/12/05 12:14:04;;;;;;;40.65;5.13;;;;;;;23.69;50.89;98197.44;7301613;19;140799;-47
2021/12/05 12:16:33;;;;;;;32.40;4.43;;;;;;;23.65;50.71;98180.44;7310366;19;129235;-48
2021/12/05 12:19:02;;;;;;;30.15;3.88;;;;;;;23.60;50.96;98177.56;7306990;19;129615;-46
2021/12/05 12:21:41;;;;;;;30.63;3.83;;;;;;;23.69;50.62;98193.00;7310012;19;129085;-46
2021/12/05 12:24:10;;;;;;;81.18;9.40;;;;;;;23.76;50.36;98193.06;7309054;19;129490;-44
2021/12/05 12:26:36;;;;;;;39.75;4.78;;;;;;;23.76;50.59;98191.25;7306761;19;130743;-48
2021/12/05 12:29:04;;;;;;;19.48;2.55;;;;;;;23.75;50.46;98196.69;7311570;19;130217;-44
2021/12/05 12:31:36;;;;;;;22.42;3.30;;;;;;;23.81;50.91;98191.50;7310746;19;129186;-48
2021/12/05 12:34:06;;;;;;;23.77;3.30;;;;;;;23.82;50.18;98195.75;7303533;19;131106;-48
2021/12/05 12:36:38;;;;;;;42.17;4.95;;;;;;;23.78;50.53;98197.13;7308287;19;132721;-48
2021/12/05 12:39:28;;;;;;;30.48;4.15;;;;;;;23.79;50.30;98196.13;7308604;19;129824;-48
2021/12/05 12:42:16;;;;;;;16.75;2.55;;;;;;;23.78;50.80;98197.13;7310240;19;129423;-45
2021/12/05 12:45:06;;;;;;;35.72;4.20;;;;;;;23.84;50.40;98185.88;7299734;19;130613;-46
2021/12/05 12:47:37;;;;;;;30.30;3.53;;;;;;;23.83;50.45;98183.44;7310458;19;129358;-47
2021/12/05 12:50:21;;;;;;;15.82;2.42;;;;;;;23.83;50.86;98183.44;7309108;19;129976;-47
2021/12/05 12:53:09;;;;;;;21.88;2.83;;;;;;;23.83;50.12;98189.47;7313442;19;129119;-46
2021/12/05 12:55:37;;;;;;;33.38;4.57;;;;;;;23.81;50.48;98195.94;7302206;19;130287;-52
2021/12/05 12:58:06;;;;;;;15.05;2.28;;;;;;;23.82;50.26;98198.38;7309424;19;129798;-50
2021/12/05 13:00:35;;;;;;;53.80;6.03;;;;;;;23.81;50.45;98201.19;7301804;19;129375;-47
2021/12/05 13:03:13;;;;;;;25.63;3.33;;;;;;;23.83;50.59;98199.97;7311597;19;129412;-46
2021/12/05 13:07:19;;;;;;;23.00;3.00;;;;;;;23.86;50.15;98207.50;7310564;19;129066;-49
2021/12/05 13:11:49;;;;;;;18.63;2.47;;;;;;;23.87;50.54;98218.78;7312616;19;129641;-49
2021/12/05 13:14:15;;;;;;;35.42;4.22;;;;;;;23.88;50.13;98215.97;7308165;19;129027;-47
2021/12/05 13:16:42;;;;;;;16.88;2.25;;;;;;;23.86;50.87;98217.19;7310591;19;129515;-47
2021/12/05 13:19:16;;;;;;;54.78;6.93;;;;;;;23.84;50.76;98214.75;7308923;19;130764;-48
2021/12/05 13:21:46;;;;;;;30.00;3.63;;;;;;;23.89;50.60;98220.25;7312016;19;130530;-48
2021/12/05 13:24:14;;;;;;;59.45;6.28;;;;;;;23.89;50.16;98219.44;7312453;19;129095;-48
2021/12/05 13:26:42;;;;;;;23.10;2.65;;;;;;;23.83;50.50;98215.72;7311738;19;158523;-47
2021/12/05 13:29:24;;;;;;;18.90;2.35;;;;;;;23.91;50.45;98217.44;7312079;19;130996;-46
2021/12/05 13:31:56;;;;;;;10.77;1.33;;;;;;;23.94;50.12;98225.75;7314560;19;129147;-48
2021/12/05 13:34:33;;;;;;;22.35;2.75;;;;;;;23.92;50.80;98225.13;7311847;19;129525;-46
2021/12/05 13:37:08;;;;;;;35.00;4.73;;;;;;;23.88;50.31;98226.47;7312143;19;130185;-48
2021/12/05 13:39:55;;;;;;;30.95;3.47;;;;;;;23.88;50.25;98229.09;7313257;19;130400;-48
2021/12/05 13:42:41;;;;;;;24.00;2.95;;;;;;;23.91;50.12;98234.00;7312334;19;131378;-46
2021/12/05 13:45:35;;;;;;;19.40;2.40;;;;;;;23.91;50.77;98243.69;7312828;19;129604;-46
2021/12/05 13:48:01;;;;;;;19.98;2.65;;;;;;;23.93;50.46;98258.22;7311158;19;130170;-47
2021/12/05 13:50:51;;;;;;;23.07;2.90;;;;;;;23.89;50.95;98272.75;7310111;19;159110;-48
2021/12/05 13:53:35;;;;;;;20.17;2.35;;;;;;;23.90;50.28;98271.75;7314546;19;129052;-48
2021/12/05 13:56:06;;;;;;;17.48;2.47;;;;;;;23.95;50.48;98277.25;7306808;19;131458;-48
2021/12/05 13:58:41;;;;;;;25.67;3.17;;;;;;;23.93;50.54;98284.50;7311736;19;129958;-48
2021/12/05 14:01:25;;;;;;;18.95;2.55;;;;;;;23.91;50.27;98285.69;7310814;19;130352;-48
2021/12/05 14:04:18;;;;;;;31.75;4.13;;;;;;;23.87;50.63;98290.50;7313789;19;129976;-48
2021/12/05 14:07:09;;;;;;;21.02;2.42;;;;;;;23.90;50.60;98290.13;7312131;19;128911;-47
2021/12/05 14:09:54;;;;;;;33.75;4.43;;;;;;;23.79;50.53;98282.72;7311277;19;129087;-46
2021/12/05 14:12:29;;;;;;;37.45;4.32;;;;;;;23.91;50.31;98304.88;7310381;19;130010;-44
2021/12/05 14:14:55;;;;;;;14.90;2.10;;;;;;;23.87;50.36;98308.88;7310479;19;129869;-47
2021/12/05 14:17:28;;;;;;;30.67;3.22;;;;;;;23.84;50.30;98309.25;7304689;19;151274;-46
2021/12/05 14:19:57;;;;;;;33.25;4.03;;;;;;;23.85;50.29;98305.59;7304655;19;130696;-47
2021/12/05 14:22:25;;;;;;;23.02;3.22;;;;;;;23.91;50.73;98312.75;7307351;19;131655;-47
2021/12/05 14:24:53;;;;;;;15.77;1.90;;;;;;;23.93;50.87;98313.38;7307251;19;129278;-47
2021/12/05 14:27:31;;;;;;;34.17;4.28;;;;;;;23.91;50.59;98306.69;7308564;19;129171;-45
2021/12/05 14:29:58;;;;;;;28.70;3.47;;;;;;;23.88;50.24;98320.97;7304456;19;131408;-48
2021/12/05 14:32:26;;;;;;;30.38;3.53;;;;;;;23.89;50.55;98314.75;7308823;19;129718;-47
2021/12/05 14:34:55;;;;;;;18.92;2.40;;;;;;;23.94;50.19;98316.81;7307882;19;130038;-47
2021/12/05 14:37:22;;;;;;;20.98;2.83;;;;;;;23.94;50.57;98319.44;7304079;19;130714;-46
2021/12/05 14:39:51;;;;;;;27.92;3.30;;;;;;;23.91;50.69;98311.94;7307682;19;133292;-46
2021/12/05 14:42:20;;;;;;;33.88;3.80;;;;;;;23.93;50.63;98323.88;7303380;19;130801;-47
2021/12/05 14:44:48;;;;;;;22.50;2.78;;;;;;;23.94;50.94;98329.94;7305742;19;130346;-46
2021/12/05 14:47:18;;;;;;;35.63;4.30;;;;;;;23.94;50.55;98336.00;7305226;19;130343;-48
2021/12/05 14:49:49;;;;;;;23.92;3.08;;;;;;;23.90;50.46;98339.19;7301945;19;131150;-48
2021/12/05 14:52:25;;;;;;;19.48;2.13;;;;;;;23.87;50.71;98337.75;7306199;19;129549;-45
2021/12/05 14:54:52;;;;;;;16.50;2.15;;;;;;;23.91;51.05;98348.69;7305405;19;129163;-48
2021/12/05 14:57:22;;;;;;;24.50;3.17;;;;;;;23.92;50.69;98339.81;7303251;19;130317;-47
2021/12/05 14:59:49;;;;;;;26.50;3.15;;;;;;;23.85;50.51;98323.97;7306253;19;129199;-47
2021/12/05 15:02:17;;;;;;;19.65;2.63;;;;;;;23.90;50.33;98341.81;7312877;19;129617;-44
2021/12/05 15:04:49;;;;;;;36.55;4.60;;;;;;;23.94;50.30;98348.31;7313541;19;129999;-46
2021/12/05 15:07:17;;;;;;;16.20;1.92;;;;;;;23.94;50.94;98348.31;7318016;19;129522;-46
2021/12/05 15:09:46;;;;;;;112.10;11.13;;;;;;;23.93;49.96;98346.69;7316265;19;129868;-53
2021/12/05 15:12:18;;;;;;;22.90;3.22;;;;;;;23.84;50.40;98332.88;7307070;19;130471;-50
2021/12/05 15:14:45;;;;;;;32.67;3.28;;;;;;;23.94;50.58;98351.75;7313412;19;129326;-49
2021/12/05 15:17:14;;;;;;;28.58;3.00;;;;;;;23.90;50.97;98353.13;7308727;19;130717;-44
2021/12/05 15:19:43;;;;;;;16.52;2.25;;;;;;;23.93;50.41;98352.75;7318299;19;129125;-47
2021/12/05 15:22:12;;;;;;;22.27;3.25;;;;;;;23.95;50.82;98361.25;7302445;19;129491;-51
2021/12/05 15:24:38;;;;;;;23.83;3.67;;;;;;;23.93;50.42;98360.63;7311012;19;129461;-52
2021/12/05 15:27:09;;;;;;;131.03;15.07;;;;;;;23.93;51.09;98363.25;7304736;19;131501;-43
2021/12/05 15:29:35;;;;;;;17.88;2.35;;;;;;;23.87;50.22;98336.91;7313562;19;130182;-46
2021/12/05 15:32:00;;;;;;;14.38;1.75;;;;;;;23.94;50.61;98354.38;7317775;19;159064;-46
2021/12/05 15:34:33;;;;;;;16.50;2.05;;;;;;;23.95;50.37;98356.00;7310547;19;154946;-47
2021/12/05 15:39:30;;;;;;;11.85;2.10;;;;;;;23.97;50.55;98356.63;7300419;19;157191;-50
2021/12/05 15:41:57;;;;;;;12.80;1.70;;;;;;;23.95;50.61;98360.44;7312995;19;130849;-45
2021/12/05 15:44:27;;;;;;;16.23;1.88;;;;;;;23.95;50.44;98368.31;7308698;19;131224;-48
2021/12/05 15:47:08;;;;;;;12.10;1.90;;;;;;;23.86;50.28;98346.63;7313582;19;154930;-49
2021/12/05 15:49:56;;;;;;;44.45;5.40;;;;;;;23.94;50.76;98369.31;7311632;19;130744;-47
2021/12/05 15:52:30;;;;;;;18.67;2.30;;;;;;;23.97;50.89;98359.25;7316193;19;130225;-47
2021/12/05 15:54:56;;;;;;;20.30;2.30;;;;;;;23.97;50.33;98369.75;7314848;19;129218;-46
2021/12/05 15:57:33;;;;;;;83.57;9.30;;;;;;;23.94;50.82;98364.88;7308989;19;130748;-45
2021/12/05 16:00:06;;;;;;;33.43;5.57;;;;;;;23.95;50.78;98369.13;7305902;19;131152;-51
2021/12/05 16:02:31;;;;;;;26.67;3.83;;;;;;;23.96;50.25;98364.69;7311710;19;131045;-48
2021/12/05 16:04:57;;;;;;;110.38;11.45;;;;;;;23.95;50.83;98371.75;7304913;19;129991;-48
2021/12/05 16:07:28;;;;;;;29.92;3.60;;;;;;;23.93;50.85;98379.00;7307650;19;130292;-47
2021/12/05 16:10:08;;;;;;;9.70;1.40;;;;;;;23.92;50.97;98371.31;7315029;19;130154;-48
2021/12/05 16:12:37;;;;;;;54.95;6.78;;;;;;;23.92;50.43;98374.75;7305927;19;131736;-48
2021/12/05 16:15:03;;;;;;;14.52;1.88;;;;;;;23.91;50.63;98381.00;7312962;19;130316;-45
2021/12/05 16:17:30;;;;;;;29.13;3.33;;;;;;;23.83;51.07;98367.97;7313439;19;129359;-48
2021/12/05 16:20:06;;;;;;;6.03;1.10;;;;;;;23.85;50.51;98381.72;7316916;19;129087;-49
2021/12/05 16:22:31;;;;;;;30.77;3.38;;;;;;;23.80;50.65;98380.66;7310534;19;129277;-45
2021/12/05 16:24:57;;;;;;;21.40;2.88;;;;;;;23.72;50.98;98381.56;7312365;19;154758;-47